createdAt,value
2023-05-05T00:02:35.594Z,101687.44
2023-05-05T00:05:36.926Z,101687.78
2023-05-05T00:08:38.306Z,101681.69
2023-05-05T00:11:40.206Z,101681.09
2023-05-05T00:14:41.647Z,101678.81
2023-05-05T00:17:43.145Z,101680.97
2023-05-05T00:20:46.355Z,101680.88
2023-05-05T00:23:47.763Z,101672.22
2023-05-05T00:26:50.312Z,101670.50
2023-05-05T00:29:51.717Z,101664.00
2023-05-05T00:32:54.417Z,101665.69
2023-05-05T00:35:55.933Z,101662.75
2023-05-05T00:38:57.202Z,101665.00
2023-05-05T00:41:59.271Z,101659.16
2023-05-05T00:45:01.370Z,101657.25
2023-05-05T00:48:03.186Z,101655.19
2023-05-05T00:51:08.465Z,101654.59
2023-05-05T00:54:09.994Z,101649.94
2023-05-05T00:57:12.190Z,101652.97
2023-05-05T01:00:13.697Z,101654.38
2023-05-05T01:03:15.341Z,101657.50
2023-05-05T01:06:32.998Z,101651.63
2023-05-05T01:09:44.654Z,101645.78
2023-05-05T01:12:54.886Z,101641.16
2023-05-05T01:16:04.149Z,101641.97
2023-05-05T01:19:24.692Z,101649.72
2023-05-05T01:22:33.494Z,101646.88
2023-05-05T01:26:08.228Z,101637.19
2023-05-05T01:29:31.182Z,101638.59
2023-05-05T01:32:38.359Z,101641.94
2023-05-05T01:35:43.441Z,101644.09
2023-05-05T01:38:45.561Z,101635.16
2023-05-05T01:41:48.763Z,101641.81
2023-05-05T01:44:52.681Z,101649.00
2023-05-05T01:47:55.879Z,101652.44
2023-05-05T01:50:58.798Z,101645.66
2023-05-05T01:54:04.031Z,101646.47
2023-05-05T01:57:07.181Z,101643.59
2023-05-05T02:00:11.129Z,101637.13
2023-05-05T02:03:15.326Z,101639.44
2023-05-05T02:06:19.017Z,101635.94
2023-05-05T02:09:21.047Z,101624.63
2023-05-05T02:12:23.285Z,101627.84
2023-05-05T02:15:26.662Z,101621.88
2023-05-05T02:18:30.270Z,101630.81
2023-05-05T02:21:32.268Z,101624.88
2023-05-05T02:24:34.029Z,101632.72
2023-05-05T02:27:37.215Z,101630.44
2023-05-05T02:30:40.042Z,101621.28
2023-05-05T02:33:44.187Z,101615.75
2023-05-05T02:36:47.431Z,101620.63
2023-05-05T02:39:58.068Z,101613.06
2023-05-05T02:43:03.619Z,101619.31
2023-05-05T02:46:05.304Z,101607.72
2023-05-05T02:49:07.345Z,101616.44
2023-05-05T02:52:08.763Z,101610.84
2023-05-05T02:55:10.737Z,101612.75
2023-05-05T02:58:23.911Z,101625.19
2023-05-05T03:01:32.402Z,101619.25
2023-05-05T03:04:39.136Z,101615.44
2023-05-05T03:07:48.634Z,101612.72
2023-05-05T03:10:59.092Z,101621.50
2023-05-05T03:14:07.069Z,101620.69
2023-05-05T03:17:10.874Z,101616.25
2023-05-05T03:20:14.554Z,101614.44
2023-05-05T03:23:20.048Z,101615.03
2023-05-05T03:26:21.402Z,101621.38
2023-05-05T03:29:22.690Z,101616.84
2023-05-05T03:32:24.053Z,101623.88
2023-05-05T03:35:26.063Z,101626.59
2023-05-05T03:38:27.298Z,101630.34
2023-05-05T03:41:28.615Z,101624.81
2023-05-05T03:44:29.967Z,101626.38
2023-05-05T03:47:31.497Z,101622.16
2023-05-05T03:50:33.639Z,101615.53
2023-05-05T03:53:35.157Z,101617.84
2023-05-05T03:56:36.480Z,101609.44
2023-05-05T03:59:37.888Z,101616.31
2023-05-05T04:02:39.244Z,101608.38
2023-05-05T04:05:42.043Z,101611.88
2023-05-05T04:08:43.512Z,101611.19
2023-05-05T04:11:44.781Z,101615.81
2023-05-05T04:14:46.202Z,101615.00
2023-05-05T04:17:47.744Z,101609.50
2023-05-05T04:20:49.856Z,101609.28
2023-05-05T04:23:51.656Z,101612.63
2023-05-05T04:26:53.565Z,101613.50
2023-05-05T04:29:55.008Z,101624.56
2023-05-05T04:32:56.409Z,101617.50
2023-05-05T04:35:59.626Z,101621.97
2023-05-05T04:39:01.094Z,101627.84
2023-05-05T04:42:02.574Z,101629.28
2023-05-05T04:45:04.516Z,101640.41
2023-05-05T04:48:05.927Z,101642.44
2023-05-05T04:51:08.100Z,101649.25
2023-05-05T04:54:09.368Z,101649.84
2023-05-05T04:57:10.771Z,101654.63
2023-05-05T05:00:12.936Z,101649.84
2023-05-05T05:03:14.322Z,101654.31
2023-05-05T05:06:16.428Z,101649.22
2023-05-05T05:09:17.959Z,101642.88
2023-05-05T05:12:19.374Z,101642.09
2023-05-05T05:15:20.910Z,101651.09
2023-05-05T05:18:22.389Z,101645.31
2023-05-05T05:21:24.340Z,101658.19
2023-05-05T05:24:25.719Z,101642.56
2023-05-05T05:27:27.015Z,101654.75
2023-05-05T05:30:28.464Z,101642.69
2023-05-05T05:33:31.614Z,101652.81
2023-05-05T05:36:33.769Z,101655.13
2023-05-05T05:39:35.691Z,101660.47
2023-05-05T05:42:37.194Z,101659.50
2023-05-05T05:45:38.525Z,101658.75
2023-05-05T05:48:40.256Z,101661.03
2023-05-05T05:51:42.222Z,101653.22
2023-05-05T05:54:43.578Z,101657.09
2023-05-05T05:57:44.898Z,101646.94
2023-05-05T06:00:47.574Z,101642.31
2023-05-05T06:03:48.912Z,101651.72
2023-05-05T06:06:50.899Z,101655.00
2023-05-05T06:09:52.228Z,101648.31
2023-05-05T06:12:53.640Z,101646.53
2023-05-05T06:15:55.036Z,101655.84
2023-05-05T06:18:56.338Z,101648.28
2023-05-05T06:21:58.450Z,101650.00
2023-05-05T06:24:59.831Z,101653.22
2023-05-05T06:28:01.469Z,101652.84
2023-05-05T06:31:02.812Z,101659.88
2023-05-05T06:34:04.172Z,101659.16
2023-05-05T06:37:06.163Z,101661.97
2023-05-05T06:40:09.694Z,101672.00
2023-05-05T06:43:11.199Z,101662.59
2023-05-05T06:46:12.691Z,101653.69
2023-05-05T06:49:14.122Z,101645.94
2023-05-05T06:52:16.084Z,101651.69
2023-05-05T06:55:17.425Z,101653.53
2023-05-05T06:58:18.703Z,101669.13
2023-05-05T07:01:20.050Z,101662.53
2023-05-05T07:04:21.329Z,101665.28
2023-05-05T07:07:23.424Z,101652.28
2023-05-05T07:10:26.133Z,101678.38
2023-05-05T07:13:27.428Z,101671.72
2023-05-05T07:16:28.882Z,101668.66
2023-05-05T07:19:30.156Z,101671.44
2023-05-05T07:22:32.123Z,101671.44
2023-05-05T07:25:33.836Z,101671.63
2023-05-05T07:28:35.297Z,101669.72
2023-05-05T07:31:36.752Z,101669.31
2023-05-05T07:34:39.621Z,101680.59
2023-05-05T07:37:41.754Z,101671.94
2023-05-05T07:40:43.085Z,101676.13
2023-05-05T07:43:44.814Z,101690.44
2023-05-05T07:46:47.599Z,101680.34
2023-05-05T07:49:48.996Z,101690.19
2023-05-05T07:52:56.326Z,101676.41
2023-05-05T07:56:08.155Z,101684.03
2023-05-05T07:59:09.496Z,101677.66
2023-05-05T08:02:11.938Z,101681.19
2023-05-05T08:05:13.367Z,101676.91
2023-05-05T08:08:15.331Z,101664.00
2023-05-05T08:11:17.081Z,101671.31
2023-05-05T08:14:18.324Z,101661.22
2023-05-05T08:17:19.655Z,101657.94
2023-05-05T08:20:21.558Z,101664.00
2023-05-05T08:23:23.536Z,101656.75
2023-05-05T08:26:24.860Z,101655.88
2023-05-05T08:29:26.132Z,101665.25
2023-05-05T08:32:29.679Z,101659.38
2023-05-05T08:35:31.124Z,101666.03
2023-05-05T08:38:33.073Z,101658.28
2023-05-05T08:41:34.419Z,101654.59
2023-05-05T08:44:36.343Z,101655.22
2023-05-05T08:47:38.604Z,101664.22
2023-05-05T08:50:43.375Z,101666.97
2023-05-05T08:53:56.147Z,101659.94
2023-05-05T08:57:01.070Z,101662.56
2023-05-05T09:00:03.224Z,101661.09
2023-05-05T09:03:05.939Z,101661.22
2023-05-05T09:06:08.774Z,101669.84
2023-05-05T09:09:11.382Z,101661.13
2023-05-05T09:12:12.764Z,101648.44
2023-05-05T09:15:14.934Z,101657.47
2023-05-05T09:18:16.249Z,101669.13
2023-05-05T09:21:21.218Z,101654.22
2023-05-05T09:24:23.185Z,101647.38
2023-05-05T09:27:24.539Z,101641.84
2023-05-05T09:30:26.639Z,101636.19
2023-05-05T09:33:31.302Z,101641.91
2023-05-05T09:36:42.909Z,101647.75
2023-05-05T09:39:53.970Z,101643.69
2023-05-05T09:43:01.472Z,101646.91
2023-05-05T09:46:07.010Z,101641.84
2023-05-05T09:49:13.656Z,101647.53
2023-05-05T09:52:16.039Z,101654.91
2023-05-05T09:55:18.695Z,101654.56
2023-05-05T09:58:22.923Z,101649.00
2023-05-05T10:01:24.440Z,101664.81
2023-05-05T10:04:27.410Z,101665.63
2023-05-05T10:07:28.690Z,101646.00
2023-05-05T10:10:30.856Z,101648.38
2023-05-05T10:13:36.293Z,101640.31
2023-05-05T10:16:41.487Z,101626.63
2023-05-05T10:19:43.806Z,101632.66
2023-05-05T10:22:51.041Z,101639.91
2023-05-05T10:25:59.018Z,101636.13
2023-05-05T10:29:03.653Z,101633.56
2023-05-05T10:32:40.792Z,101648.47
2023-05-05T10:35:40.080Z,101640.84
2023-05-05T10:38:42.772Z,101631.03
2023-05-05T10:41:46.616Z,101629.28
2023-05-05T10:44:48.413Z,101639.69
2023-05-05T10:47:51.364Z,101635.28
2023-05-05T10:50:58.980Z,101630.50
2023-05-05T10:54:05.834Z,101623.72
2023-05-05T10:57:10.599Z,101626.41
2023-05-05T11:00:50.412Z,101630.25
2023-05-05T11:03:52.006Z,101621.59
2023-05-05T11:07:30.155Z,101612.72
2023-05-05T11:10:43.777Z,101613.22
2023-05-05T11:13:45.840Z,101594.13
2023-05-05T11:16:49.106Z,101601.28
2023-05-05T11:19:51.850Z,101611.91
2023-05-05T11:23:21.381Z,101598.16
2023-05-05T11:26:50.727Z,101581.19
2023-05-05T11:30:06.314Z,101580.13
2023-05-05T11:33:26.821Z,101572.81
2023-05-05T11:36:39.638Z,101567.69
2023-05-05T11:39:53.920Z,101570.03
2023-05-05T11:43:04.453Z,101568.19
2023-05-05T11:46:13.312Z,101577.44
2023-05-05T11:49:26.107Z,101558.97
2023-05-05T11:52:27.479Z,101563.69
2023-05-05T11:55:29.870Z,101565.03
2023-05-05T11:58:31.298Z,101565.06
2023-05-05T12:01:33.321Z,101556.91
2023-05-05T12:04:39.475Z,101548.50
2023-05-05T12:07:41.057Z,101546.88
2023-05-05T12:10:42.388Z,101564.84
2023-05-05T12:13:43.771Z,101552.25
2023-05-05T12:16:55.091Z,101542.78
2023-05-05T12:19:56.567Z,101543.09
2023-05-05T12:23:02.270Z,101538.84
2023-05-05T12:26:03.998Z,101542.28
2023-05-05T12:29:05.597Z,101538.75
2023-05-05T12:32:18.615Z,101521.56
2023-05-05T12:35:21.133Z,101528.88
2023-05-05T12:41:43.422Z,101528.25
2023-05-05T12:44:46.078Z,101525.97
2023-05-05T12:47:48.055Z,101522.66
2023-05-05T12:50:49.587Z,101534.69
2023-05-05T12:54:01.902Z,101526.03
2023-05-05T12:57:11.157Z,101522.19
2023-05-05T13:00:14.649Z,101521.44
2023-05-05T13:03:20.077Z,101514.84
2023-05-05T13:06:23.920Z,101507.59
2023-05-05T13:09:26.676Z,101499.63
2023-05-05T13:12:28.065Z,101496.66
2023-05-05T13:15:29.403Z,101491.19
2023-05-05T13:18:31.496Z,101492.56
2023-05-05T13:21:32.831Z,101485.47
2023-05-05T13:24:49.686Z,101476.75
2023-05-05T13:27:52.592Z,101483.41
2023-05-05T13:30:54.086Z,101473.31
2023-05-05T13:33:56.025Z,101467.44
2023-05-05T13:36:57.431Z,101466.88
2023-05-05T13:39:59.565Z,101471.75
2023-05-05T13:43:00.961Z,101471.63
2023-05-05T13:46:12.504Z,101461.50
2023-05-05T13:49:21.044Z,101459.03
2023-05-05T13:52:22.523Z,101448.66
2023-05-05T13:55:23.855Z,101441.84
2023-05-05T13:58:25.258Z,101443.53
2023-05-05T14:01:26.722Z,101431.47
2023-05-05T14:04:28.772Z,101428.97
2023-05-05T14:07:30.060Z,101430.78
2023-05-05T14:10:31.506Z,101422.22
2023-05-05T14:13:32.956Z,101425.56
2023-05-05T14:16:34.474Z,101419.94
2023-05-05T14:19:36.659Z,101411.63
2023-05-05T14:22:37.885Z,101411.00
2023-05-05T14:25:39.314Z,101409.44
2023-05-05T14:28:41.441Z,101406.47
2023-05-05T14:31:42.962Z,101400.06
2023-05-05T14:34:45.056Z,101401.09
2023-05-05T14:37:46.364Z,101410.38
2023-05-05T14:40:47.774Z,101405.69
2023-05-05T14:43:49.087Z,101398.91
2023-05-05T14:46:51.264Z,101401.22
2023-05-05T14:49:53.310Z,101406.75
2023-05-05T14:52:54.681Z,101404.59
2023-05-05T14:55:56.123Z,101415.38
2023-05-05T14:58:57.536Z,101414.34
2023-05-05T15:01:58.920Z,101410.25
2023-05-05T15:05:01.147Z,101402.72
2023-05-05T15:08:02.475Z,101401.84
2023-05-05T15:11:04.013Z,101410.94
2023-05-05T15:14:05.486Z,101409.91
2023-05-05T15:17:06.746Z,101406.28
2023-05-05T15:20:09.776Z,101405.69
2023-05-05T15:23:38.867Z,101399.88
2023-05-05T15:26:40.178Z,101391.13
2023-05-05T15:29:41.485Z,101399.09
2023-05-05T15:32:43.020Z,101387.34
2023-05-05T15:35:45.335Z,101382.72
2023-05-05T15:38:46.589Z,101386.13
2023-05-05T15:41:48.083Z,101396.38
2023-05-05T15:44:49.738Z,101380.75
2023-05-05T15:47:52.343Z,101382.41
2023-05-05T15:50:54.344Z,101378.69
2023-05-05T15:53:55.747Z,101377.03
2023-05-05T15:56:57.215Z,101385.06
2023-05-05T15:59:58.592Z,101371.97
2023-05-05T16:03:00.244Z,101379.06
2023-05-05T16:06:02.222Z,101377.91
2023-05-05T16:09:03.761Z,101386.53
2023-05-05T16:12:05.955Z,101378.63
2023-05-05T16:15:08.514Z,101382.94
2023-05-05T16:18:10.225Z,101387.06
2023-05-05T16:21:12.416Z,101378.06
2023-05-05T16:24:15.712Z,101384.53
2023-05-05T16:27:17.137Z,101375.09
2023-05-05T16:30:18.451Z,101379.81
2023-05-05T16:33:19.877Z,101385.22
2023-05-05T16:36:21.808Z,101379.91
2023-05-05T16:39:23.085Z,101371.56
2023-05-05T16:42:24.321Z,101372.13
2023-05-05T16:45:25.669Z,101373.44
2023-05-05T16:48:27.153Z,101371.94
2023-05-05T16:51:29.300Z,101366.44
2023-05-05T16:54:30.722Z,101363.34
2023-05-05T16:57:32.019Z,101359.53
2023-05-05T17:00:33.449Z,101354.97
2023-05-05T17:03:35.107Z,101361.31
2023-05-05T17:06:37.174Z,101351.81
2023-05-05T17:09:38.469Z,101339.19
2023-05-05T17:12:39.882Z,101356.38
2023-05-05T17:15:42.903Z,101351.75
2023-05-05T17:18:44.187Z,101352.13
2023-05-05T17:21:46.257Z,101348.53
2023-05-05T17:24:47.522Z,101348.63
2023-05-05T17:27:48.962Z,101349.69
2023-05-05T17:30:50.469Z,101359.66
2023-05-05T17:33:51.725Z,101336.75
2023-05-05T17:36:53.737Z,101342.00
2023-05-05T17:39:55.035Z,101344.06
2023-05-05T17:42:56.314Z,101326.56
2023-05-05T17:45:57.660Z,101327.69
2023-05-05T17:48:59.747Z,101331.59
2023-05-05T17:52:02.100Z,101320.50
2023-05-05T17:55:03.731Z,101330.25
2023-05-05T17:58:05.079Z,101335.41
2023-05-05T18:01:06.381Z,101327.38
2023-05-05T18:04:07.710Z,101346.16
2023-05-05T18:07:11.536Z,101339.88
2023-05-05T18:10:12.885Z,101357.19
2023-05-05T18:13:14.441Z,101356.47
2023-05-05T18:16:15.926Z,101358.91
2023-05-05T18:19:18.585Z,101357.78
2023-05-05T18:22:21.462Z,101362.94
2023-05-05T18:25:23.113Z,101355.72
2023-05-05T18:28:24.593Z,101374.03
2023-05-05T18:31:26.541Z,101382.03
2023-05-05T18:34:28.670Z,101378.22
2023-05-05T18:37:30.764Z,101392.72
2023-05-05T18:40:32.066Z,101390.28
2023-05-05T18:43:33.388Z,101388.59
2023-05-05T18:46:34.753Z,101379.50
2023-05-05T18:49:36.707Z,101392.81
2023-05-05T18:52:38.636Z,101406.72
2023-05-05T18:55:41.936Z,101396.44
2023-05-05T18:58:43.216Z,101404.00
2023-05-05T19:01:44.880Z,101410.97
2023-05-05T19:04:46.189Z,101405.97
2023-05-05T19:07:48.237Z,101398.03
2023-05-05T19:10:49.585Z,101394.97
2023-05-05T19:13:51.399Z,101398.28
2023-05-05T19:16:54.845Z,101397.19
2023-05-05T19:19:56.231Z,101387.81
2023-05-05T19:23:02.710Z,101400.81
2023-05-05T19:26:05.036Z,101408.88
2023-05-05T19:29:06.336Z,101407.47
2023-05-05T19:32:07.964Z,101404.69
2023-05-05T19:35:09.598Z,101409.72
2023-05-05T19:38:12.032Z,101404.72
2023-05-05T19:41:13.351Z,101399.72
2023-05-05T19:44:14.720Z,101407.47
2023-05-05T19:47:17.475Z,101416.56
2023-05-05T19:50:18.932Z,101410.22
2023-05-05T19:53:20.935Z,101395.28
2023-05-05T19:56:23.145Z,101422.69
2023-05-05T19:59:24.627Z,101419.94
2023-05-05T20:02:26.381Z,101419.09
2023-05-05T20:05:27.861Z,101417.97
2023-05-05T20:08:29.946Z,101409.66
2023-05-05T20:11:31.423Z,101409.69
2023-05-05T20:14:32.829Z,101407.16
2023-05-05T20:17:34.133Z,101401.88
2023-05-05T20:20:35.609Z,101414.34
2023-05-05T20:23:37.649Z,101412.94
2023-05-05T20:26:39.093Z,101407.97
2023-05-05T20:29:40.943Z,101416.78
2023-05-05T20:32:42.275Z,101408.22
2023-05-05T20:35:43.727Z,101407.94
2023-05-05T20:38:45.671Z,101399.06
2023-05-05T20:41:47.168Z,101417.28
2023-05-05T20:44:48.433Z,101413.63
2023-05-05T20:47:49.870Z,101408.66
2023-05-05T20:50:51.434Z,101403.22
2023-05-05T20:53:53.441Z,101404.59
2023-05-05T20:56:57.464Z,101414.69
2023-05-05T20:59:58.688Z,101403.34
2023-05-05T21:03:01.920Z,101404.78
2023-05-05T21:06:03.470Z,101411.13
2023-05-05T21:09:06.011Z,101415.78
2023-05-05T21:12:07.488Z,101410.25
2023-05-05T21:15:10.550Z,101403.06
2023-05-05T21:18:12.138Z,101405.28
2023-05-05T21:21:13.416Z,101410.00
2023-05-05T21:24:15.748Z,101417.66
2023-05-05T21:27:17.398Z,101416.91
2023-05-05T21:30:18.867Z,101428.16
2023-05-05T21:33:20.720Z,101417.81
2023-05-05T21:36:22.302Z,101420.28
2023-05-05T21:39:24.464Z,101408.16
2023-05-05T21:42:26.299Z,101408.19
2023-05-05T21:45:27.597Z,101407.31
2023-05-05T21:48:28.972Z,101408.97
2023-05-05T21:51:30.558Z,101411.72
2023-05-05T21:54:32.485Z,101413.66
2023-05-05T21:57:33.765Z,101409.78
2023-05-05T22:00:35.127Z,101413.34
2023-05-05T22:03:36.681Z,101420.38
2023-05-05T22:06:38.192Z,101425.56
2023-05-05T22:09:40.165Z,101419.66
2023-05-05T22:12:41.667Z,101423.25
2023-05-05T22:15:47.206Z,101426.53
2023-05-05T22:18:49.503Z,101424.63
2023-05-05T22:21:50.798Z,101427.53
2023-05-05T22:24:52.924Z,101424.16
2023-05-05T22:27:54.996Z,101438.91
2023-05-05T22:30:56.623Z,101437.81
2023-05-05T22:33:58.572Z,101433.47
2023-05-05T22:36:59.939Z,101435.56
2023-05-05T22:40:02.043Z,101439.75
2023-05-05T22:43:03.456Z,101432.31
2023-05-05T22:46:05.216Z,101421.72
2023-05-05T22:49:06.552Z,101422.16
2023-05-05T22:52:08.072Z,101416.41
2023-05-05T22:55:12.284Z,101421.56
2023-05-05T22:58:13.645Z,101421.50
2023-05-05T23:01:15.125Z,101416.44
2023-05-05T23:04:16.462Z,101411.06
2023-05-05T23:07:18.128Z,101404.09
2023-05-05T23:10:20.276Z,101403.25
2023-05-05T23:13:21.677Z,101410.75
2023-05-05T23:16:23.205Z,101411.66
2023-05-05T23:19:24.556Z,101406.84
2023-05-05T23:22:26.100Z,101406.63
2023-05-05T23:25:28.043Z,101400.31
2023-05-05T23:31:50.305Z,101394.22
2023-05-05T23:34:51.796Z,101397.22
2023-05-05T23:37:53.091Z,101386.66
2023-05-05T23:40:55.174Z,101392.78
2023-05-05T23:43:56.701Z,101388.81
2023-05-05T23:46:58.005Z,101385.16
2023-05-05T23:49:59.632Z,101387.00
2023-05-05T23:53:00.874Z,101376.41
2023-05-05T23:56:03.005Z,101377.81
2023-05-05T23:59:04.651Z,101373.97
